sensor_id;sensor_type;location;lat;lon;timestamp;P1;durP1;ratioP1;P2;durP2;ratioP2
13689;SDS011;6917;52.194;9.894;2022-11-20T00:00:08;3.47;;;3.20;;
13689;SDS011;6917;52.194;9.894;2022-11-20T00:02:34;0.87;;;0.87;;
13689;SDS011;6917;52.194;9.894;2022-11-20T00:04:59;0.80;;;0.80;;
13689;SDS011;6917;52.194;9.894;2022-11-20T00:07:24;0.00;;;0.00;;
13689;SDS011;6917;52.194;9.894;2022-11-20T00:09:50;0.00;;;0.00;;
13689;SDS011;6917;52.194;9.894;2022-11-20T00:12:15;0.47;;;0.47;;
13689;SDS011;6917;52.194;9.894;2022-11-20T00:14:41;0.00;;;0.00;;
13689;SDS011;6917;52.194;9.894;2022-11-20T00:17:06;0.97;;;0.97;;
13689;SDS011;6917;52.194;9.894;2022-11-20T00:19:32;0.23;;;0.23;;
13689;SDS011;6917;52.194;9.894;2022-11-20T00:21:57;1.00;;;1.00;;
13689;SDS011;6917;52.194;9.894;2022-11-20T00:24:22;0.43;;;0.40;;
13689;SDS011;6917;52.194;9.894;2022-11-20T00:26:48;0.00;;;0.00;;
13689;SDS011;6917;52.194;9.894;2022-11-20T00:29:13;0.00;;;0.00;;
13689;SDS011;6917;52.194;9.894;2022-11-20T00:31:38;0.00;;;0.00;;
13689;SDS011;6917;52.194;9.894;2022-11-20T00:34:03;0.00;;;0.00;;
13689;SDS011;6917;52.194;9.894;2022-11-20T00:36:31;0.73;;;0.73;;
13689;SDS011;6917;52.194;9.894;2022-11-20T00:38:58;0.37;;;0.37;;
13689;SDS011;6917;52.194;9.894;2022-11-20T00:41:24;0.00;;;0.00;;
13689;SDS011;6917;52.194;9.894;2022-11-20T00:43:54;0.00;;;0.00;;
13689;SDS011;6917;52.194;9.894;2022-11-20T00:46:23;0.30;;;0.30;;
13689;SDS011;6917;52.194;9.894;2022-11-20T00:48:50;0.40;;;0.40;;
13689;SDS011;6917;52.194;9.894;2022-11-20T00:51:17;0.27;;;0.27;;
13689;SDS011;6917;52.194;9.894;2022-11-20T00:53:44;0.00;;;0.00;;
13689;SDS011;6917;52.194;9.894;2022-11-20T00:56:11;0.10;;;0.10;;
13689;SDS011;6917;52.194;9.894;2022-11-20T00:58:38;0.00;;;0.00;;
13689;SDS011;6917;52.194;9.894;2022-11-20T01:01:09;0.00;;;0.00;;
13689;SDS011;6917;52.194;9.894;2022-11-20T01:03:35;0.00;;;0.00;;
13689;SDS011;6917;52.194;9.894;2022-11-20T01:06:04;0.00;;;0.00;;
13689;SDS011;6917;52.194;9.894;2022-11-20T01:08:32;2.43;;;0.67;;
13689;SDS011;6917;52.194;9.894;2022-11-20T01:11:00;0.00;;;0.00;;
13689;SDS011;6917;52.194;9.894;2022-11-20T01:13:36;0.10;;;0.10;;
13689;SDS011;6917;52.194;9.894;2022-11-20T01:18:35;1.17;;;1.17;;
13689;SDS011;6917;52.194;9.894;2022-11-20T01:21:12;1.07;;;1.03;;
13689;SDS011;6917;52.194;9.894;2022-11-20T01:23:43;0.63;;;0.63;;
13689;SDS011;6917;52.194;9.894;2022-11-20T01:26:10;0.00;;;0.00;;
13689;SDS011;6917;52.194;9.894;2022-11-20T01:28:38;0.27;;;0.27;;
13689;SDS011;6917;52.194;9.894;2022-11-20T01:31:10;1.13;;;1.13;;
13689;SDS011;6917;52.194;9.894;2022-11-20T01:33:36;0.00;;;0.00;;
13689;SDS011;6917;52.194;9.894;2022-11-20T01:36:03;0.00;;;0.00;;
13689;SDS011;6917;52.194;9.894;2022-11-20T01:38:30;34.07;;;2.20;;
13689;SDS011;6917;52.194;9.894;2022-11-20T01:40:55;0.33;;;0.33;;
13689;SDS011;6917;52.194;9.894;2022-11-20T01:43:21;0.00;;;0.00;;
13689;SDS011;6917;52.194;9.894;2022-11-20T01:48:35;0.00;;;0.00;;
13689;SDS011;6917;52.194;9.894;2022-11-20T01:51:18;2.20;;;2.10;;
13689;SDS011;6917;52.194;9.894;2022-11-20T01:53:50;0.00;;;0.00;;
13689;SDS011;6917;52.194;9.894;2022-11-20T01:56:17;0.53;;;0.53;;
13689;SDS011;6917;52.194;9.894;2022-11-20T01:58:48;0.00;;;0.00;;
13689;SDS011;6917;52.194;9.894;2022-11-20T02:01:17;1.00;;;1.00;;
13689;SDS011;6917;52.194;9.894;2022-11-20T02:03:43;0.00;;;0.00;;
13689;SDS011;6917;52.194;9.894;2022-11-20T02:06:14;0.00;;;0.00;;
13689;SDS011;6917;52.194;9.894;2022-11-20T02:08:44;0.00;;;0.00;;
13689;SDS011;6917;52.194;9.894;2022-11-20T02:11:09;0.00;;;0.00;;
13689;SDS011;6917;52.194;9.894;2022-11-20T02:13:35;0.10;;;0.10;;
13689;SDS011;6917;52.194;9.894;2022-11-20T02:16:10;0.00;;;0.00;;
13689;SDS011;6917;52.194;9.894;2022-11-20T02:18:48;0.00;;;0.00;;
13689;SDS011;6917;52.194;9.894;2022-11-20T02:21:25;0.00;;;0.00;;
13689;SDS011;6917;52.194;9.894;2022-11-20T02:26:50;2.53;;;0.73;;
13689;SDS011;6917;52.194;9.894;2022-11-20T02:29:26;0.90;;;0.90;;
13689;SDS011;6917;52.194;9.894;2022-11-20T02:31:56;0.40;;;0.40;;
13689;SDS011;6917;52.194;9.894;2022-11-20T02:34:23;0.00;;;0.00;;
13689;SDS011;6917;52.194;9.894;2022-11-20T02:36:49;0.00;;;0.00;;
13689;SDS011;6917;52.194;9.894;2022-11-20T02:39:17;6.40;;;5.97;;
13689;SDS011;6917;52.194;9.894;2022-11-20T02:41:42;0.93;;;0.93;;
13689;SDS011;6917;52.194;9.894;2022-11-20T02:44:08;0.00;;;0.00;;
13689;SDS011;6917;52.194;9.894;2022-11-20T02:46:33;0.00;;;0.00;;
13689;SDS011;6917;52.194;9.894;2022-11-20T02:49:00;0.00;;;0.00;;
13689;SDS011;6917;52.194;9.894;2022-11-20T02:51:26;0.00;;;0.00;;
13689;SDS011;6917;52.194;9.894;2022-11-20T02:53:51;2.27;;;0.63;;
13689;SDS011;6917;52.194;9.894;2022-11-20T02:56:17;0.20;;;0.20;;
13689;SDS011;6917;52.194;9.894;2022-11-20T02:58:42;0.00;;;0.00;;
13689;SDS011;6917;52.194;9.894;2022-11-20T03:01:07;0.60;;;0.60;;
13689;SDS011;6917;52.194;9.894;2022-11-20T03:03:33;0.00;;;0.00;;
13689;SDS011;6917;52.194;9.894;2022-11-20T03:05:58;0.00;;;0.00;;
13689;SDS011;6917;52.194;9.894;2022-11-20T03:08:24;0.00;;;0.00;;
13689;SDS011;6917;52.194;9.894;2022-11-20T03:10:49;0.00;;;0.00;;
13689;SDS011;6917;52.194;9.894;2022-11-20T03:13:15;0.00;;;0.00;;
13689;SDS011;6917;52.194;9.894;2022-11-20T03:15:40;1.50;;;1.40;;
13689;SDS011;6917;52.194;9.894;2022-11-20T03:18:05;0.10;;;0.10;;
13689;SDS011;6917;52.194;9.894;2022-11-20T03:20:31;0.00;;;0.00;;
13689;SDS011;6917;52.194;9.894;2022-11-20T03:22:58;0.33;;;0.33;;
13689;SDS011;6917;52.194;9.894;2022-11-20T03:25:23;0.43;;;0.43;;
13689;SDS011;6917;52.194;9.894;2022-11-20T03:27:48;1.17;;;1.17;;
13689;SDS011;6917;52.194;9.894;2022-11-20T03:30:14;0.00;;;0.00;;
13689;SDS011;6917;52.194;9.894;2022-11-20T03:32:40;1.83;;;1.70;;
13689;SDS011;6917;52.194;9.894;2022-11-20T03:35:05;0.00;;;0.00;;
13689;SDS011;6917;52.194;9.894;2022-11-20T03:37:31;0.00;;;0.00;;
13689;SDS011;6917;52.194;9.894;2022-11-20T03:39:57;1.07;;;1.07;;
13689;SDS011;6917;52.194;9.894;2022-11-20T03:42:22;0.00;;;0.00;;
13689;SDS011;6917;52.194;9.894;2022-11-20T03:45:06;0.00;;;0.00;;
13689;SDS011;6917;52.194;9.894;2022-11-20T03:47:31;1.40;;;1.30;;
13689;SDS011;6917;52.194;9.894;2022-11-20T03:49:56;0.00;;;0.00;;
13689;SDS011;6917;52.194;9.894;2022-11-20T03:52:22;0.00;;;0.00;;
13689;SDS011;6917;52.194;9.894;2022-11-20T03:54:47;0.00;;;0.00;;
13689;SDS011;6917;52.194;9.894;2022-11-20T03:57:12;0.00;;;0.00;;
13689;SDS011;6917;52.194;9.894;2022-11-20T03:59:38;0.00;;;0.00;;
13689;SDS011;6917;52.194;9.894;2022-11-20T04:02:03;1.00;;;0.97;;
13689;SDS011;6917;52.194;9.894;2022-11-20T04:04:28;0.00;;;0.00;;
13689;SDS011;6917;52.194;9.894;2022-11-20T04:06:53;0.00;;;0.00;;
13689;SDS011;6917;52.194;9.894;2022-11-20T04:09:19;0.63;;;0.63;;
13689;SDS011;6917;52.194;9.894;2022-11-20T04:11:44;0.47;;;0.47;;
13689;SDS011;6917;52.194;9.894;2022-11-20T04:14:13;0.60;;;0.60;;
13689;SDS011;6917;52.194;9.894;2022-11-20T04:16:39;0.57;;;0.57;;
13689;SDS011;6917;52.194;9.894;2022-11-20T04:19:08;0.00;;;0.00;;
13689;SDS011;6917;52.194;9.894;2022-11-20T04:21:36;0.00;;;0.00;;
13689;SDS011;6917;52.194;9.894;2022-11-20T04:24:01;0.00;;;0.00;;
13689;SDS011;6917;52.194;9.894;2022-11-20T04:26:27;0.20;;;0.20;;
13689;SDS011;6917;52.194;9.894;2022-11-20T04:28:54;0.00;;;0.00;;
13689;SDS011;6917;52.194;9.894;2022-11-20T04:31:21;0.00;;;0.00;;
13689;SDS011;6917;52.194;9.894;2022-11-20T04:33:48;0.83;;;0.83;;
13689;SDS011;6917;52.194;9.894;2022-11-20T04:38:41;0.00;;;0.00;;
13689;SDS011;6917;52.194;9.894;2022-11-20T04:41:08;0.00;;;0.00;;
13689;SDS011;6917;52.194;9.894;2022-11-20T04:43:39;0.00;;;0.00;;
13689;SDS011;6917;52.194;9.894;2022-11-20T04:46:04;4.17;;;1.80;;
13689;SDS011;6917;52.194;9.894;2022-11-20T04:48:30;1.27;;;1.27;;
13689;SDS011;6917;52.194;9.894;2022-11-20T04:50:55;0.00;;;0.00;;
13689;SDS011;6917;52.194;9.894;2022-11-20T04:53:21;0.00;;;0.00;;
13689;SDS011;6917;52.194;9.894;2022-11-20T04:55:47;0.00;;;0.00;;
13689;SDS011;6917;52.194;9.894;2022-11-20T04:58:12;0.00;;;0.00;;
13689;SDS011;6917;52.194;9.894;2022-11-20T05:00:38;0.00;;;0.00;;
13689;SDS011;6917;52.194;9.894;2022-11-20T05:03:04;0.40;;;0.40;;
13689;SDS011;6917;52.194;9.894;2022-11-20T05:05:29;0.67;;;0.67;;
13689;SDS011;6917;52.194;9.894;2022-11-20T05:07:58;0.00;;;0.00;;
13689;SDS011;6917;52.194;9.894;2022-11-20T05:10:24;0.00;;;0.00;;
13689;SDS011;6917;52.194;9.894;2022-11-20T05:12:50;0.00;;;0.00;;
13689;SDS011;6917;52.194;9.894;2022-11-20T05:15:15;0.10;;;0.10;;
13689;SDS011;6917;52.194;9.894;2022-11-20T05:17:41;0.00;;;0.00;;
13689;SDS011;6917;52.194;9.894;2022-11-20T05:20:12;5.20;;;3.40;;
13689;SDS011;6917;52.194;9.894;2022-11-20T05:22:37;0.10;;;0.10;;
13689;SDS011;6917;52.194;9.894;2022-11-20T05:25:02;0.00;;;0.00;;
13689;SDS011;6917;52.194;9.894;2022-11-20T05:27:28;0.00;;;0.00;;
13689;SDS011;6917;52.194;9.894;2022-11-20T05:29:53;0.33;;;0.33;;
13689;SDS011;6917;52.194;9.894;2022-11-20T05:32:18;0.00;;;0.00;;
13689;SDS011;6917;52.194;9.894;2022-11-20T05:34:44;0.70;;;0.70;;
13689;SDS011;6917;52.194;9.894;2022-11-20T05:37:09;0.57;;;0.57;;
13689;SDS011;6917;52.194;9.894;2022-11-20T05:39:34;1.30;;;1.27;;
13689;SDS011;6917;52.194;9.894;2022-11-20T05:41:59;0.00;;;0.00;;
13689;SDS011;6917;52.194;9.894;2022-11-20T05:44:43;0.20;;;0.20;;
13689;SDS011;6917;52.194;9.894;2022-11-20T05:47:09;1.60;;;1.50;;
13689;SDS011;6917;52.194;9.894;2022-11-20T05:49:34;0.10;;;0.10;;
13689;SDS011;6917;52.194;9.894;2022-11-20T05:51:59;1.23;;;1.23;;
13689;SDS011;6917;52.194;9.894;2022-11-20T05:54:24;1.50;;;1.50;;
13689;SDS011;6917;52.194;9.894;2022-11-20T05:56:50;0.00;;;0.00;;
13689;SDS011;6917;52.194;9.894;2022-11-20T05:59:15;0.13;;;0.13;;
13689;SDS011;6917;52.194;9.894;2022-11-20T06:01:40;0.00;;;0.00;;
13689;SDS011;6917;52.194;9.894;2022-11-20T06:04:06;0.10;;;0.10;;
13689;SDS011;6917;52.194;9.894;2022-11-20T06:06:31;0.00;;;0.00;;
13689;SDS011;6917;52.194;9.894;2022-11-20T06:08:56;0.93;;;0.93;;
13689;SDS011;6917;52.194;9.894;2022-11-20T06:11:23;0.40;;;0.40;;
13689;SDS011;6917;52.194;9.894;2022-11-20T06:13:49;0.00;;;0.00;;
13689;SDS011;6917;52.194;9.894;2022-11-20T06:16:16;0.10;;;0.10;;
13689;SDS011;6917;52.194;9.894;2022-11-20T06:18:43;5.93;;;4.40;;
13689;SDS011;6917;52.194;9.894;2022-11-20T06:21:14;1.27;;;1.27;;
13689;SDS011;6917;52.194;9.894;2022-11-20T06:23:41;0.40;;;0.40;;
13689;SDS011;6917;52.194;9.894;2022-11-20T06:26:08;0.00;;;0.00;;
13689;SDS011;6917;52.194;9.894;2022-11-20T06:28:35;1.00;;;1.00;;
13689;SDS011;6917;52.194;9.894;2022-11-20T06:31:01;0.00;;;0.00;;
13689;SDS011;6917;52.194;9.894;2022-11-20T06:33:27;0.00;;;0.00;;
13689;SDS011;6917;52.194;9.894;2022-11-20T06:35:55;0.00;;;0.00;;
13689;SDS011;6917;52.194;9.894;2022-11-20T06:38:22;0.00;;;0.00;;
13689;SDS011;6917;52.194;9.894;2022-11-20T06:40:47;0.00;;;0.00;;
13689;SDS011;6917;52.194;9.894;2022-11-20T06:43:13;0.00;;;0.00;;
13689;SDS011;6917;52.194;9.894;2022-11-20T06:45:38;0.00;;;0.00;;
13689;SDS011;6917;52.194;9.894;2022-11-20T06:48:03;0.00;;;0.00;;
13689;SDS011;6917;52.194;9.894;2022-11-20T06:50:29;0.00;;;0.00;;
13689;SDS011;6917;52.194;9.894;2022-11-20T06:52:54;0.00;;;0.00;;
13689;SDS011;6917;52.194;9.894;2022-11-20T06:55:19;0.00;;;0.00;;
13689;SDS011;6917;52.194;9.894;2022-11-20T06:57:45;0.00;;;0.00;;
13689;SDS011;6917;52.194;9.894;2022-11-20T07:00:10;0.57;;;0.57;;
13689;SDS011;6917;52.194;9.894;2022-11-20T07:02:36;0.27;;;0.27;;
13689;SDS011;6917;52.194;9.894;2022-11-20T07:05:01;0.00;;;0.00;;
13689;SDS011;6917;52.194;9.894;2022-11-20T07:07:27;0.10;;;0.10;;
13689;SDS011;6917;52.194;9.894;2022-11-20T07:09:52;0.00;;;0.00;;
13689;SDS011;6917;52.194;9.894;2022-11-20T07:12:17;2.53;;;1.23;;
13689;SDS011;6917;52.194;9.894;2022-11-20T07:14:43;1.50;;;1.40;;
13689;SDS011;6917;52.194;9.894;2022-11-20T07:17:08;0.00;;;0.00;;
13689;SDS011;6917;52.194;9.894;2022-11-20T07:19:33;0.87;;;0.87;;
13689;SDS011;6917;52.194;9.894;2022-11-20T07:21:58;1.57;;;1.47;;
13689;SDS011;6917;52.194;9.894;2022-11-20T07:24:24;0.43;;;0.43;;
13689;SDS011;6917;52.194;9.894;2022-11-20T07:26:49;3.07;;;2.87;;
13689;SDS011;6917;52.194;9.894;2022-11-20T07:29:15;1.33;;;1.23;;
13689;SDS011;6917;52.194;9.894;2022-11-20T07:31:41;0.17;;;0.17;;
13689;SDS011;6917;52.194;9.894;2022-11-20T07:34:06;0.00;;;0.00;;
13689;SDS011;6917;52.194;9.894;2022-11-20T07:36:31;1.13;;;1.13;;
13689;SDS011;6917;52.194;9.894;2022-11-20T07:38:57;2.40;;;2.20;;
13689;SDS011;6917;52.194;9.894;2022-11-20T07:41:22;2.57;;;2.40;;
13689;SDS011;6917;52.194;9.894;2022-11-20T07:43:47;0.00;;;0.00;;
13689;SDS011;6917;52.194;9.894;2022-11-20T07:46:12;0.00;;;0.00;;
13689;SDS011;6917;52.194;9.894;2022-11-20T07:48:38;2.37;;;2.37;;
13689;SDS011;6917;52.194;9.894;2022-11-20T07:51:03;0.00;;;0.00;;
13689;SDS011;6917;52.194;9.894;2022-11-20T07:53:29;0.00;;;0.00;;
13689;SDS011;6917;52.194;9.894;2022-11-20T07:55:54;0.10;;;0.10;;
13689;SDS011;6917;52.194;9.894;2022-11-20T07:58:20;0.63;;;0.63;;
13689;SDS011;6917;52.194;9.894;2022-11-20T08:00:46;0.00;;;0.00;;
13689;SDS011;6917;52.194;9.894;2022-11-20T08:03:11;0.00;;;0.00;;
13689;SDS011;6917;52.194;9.894;2022-11-20T08:05:37;15.93;;;6.10;;
13689;SDS011;6917;52.194;9.894;2022-11-20T08:08:02;1.03;;;0.90;;
13689;SDS011;6917;52.194;9.894;2022-11-20T08:10:27;0.00;;;0.00;;
13689;SDS011;6917;52.194;9.894;2022-11-20T08:12:53;1.13;;;1.13;;
13689;SDS011;6917;52.194;9.894;2022-11-20T08:15:37;0.87;;;0.87;;
13689;SDS011;6917;52.194;9.894;2022-11-20T08:18:08;0.00;;;0.00;;
13689;SDS011;6917;52.194;9.894;2022-11-20T08:20:36;0.57;;;0.57;;
13689;SDS011;6917;52.194;9.894;2022-11-20T08:23:02;0.57;;;0.57;;
13689;SDS011;6917;52.194;9.894;2022-11-20T08:25:31;0.10;;;0.10;;
13689;SDS011;6917;52.194;9.894;2022-11-20T08:27:58;3.00;;;1.23;;
13689;SDS011;6917;52.194;9.894;2022-11-20T08:30:25;1.87;;;1.77;;
13689;SDS011;6917;52.194;9.894;2022-11-20T08:32:50;5.93;;;4.93;;
13689;SDS011;6917;52.194;9.894;2022-11-20T08:35:16;2.20;;;2.10;;
13689;SDS011;6917;52.194;9.894;2022-11-20T08:37:41;1.27;;;1.27;;
13689;SDS011;6917;52.194;9.894;2022-11-20T08:40:10;2.60;;;2.50;;
13689;SDS011;6917;52.194;9.894;2022-11-20T08:42:36;2.17;;;2.07;;
13689;SDS011;6917;52.194;9.894;2022-11-20T08:45:02;3.60;;;3.30;;
13689;SDS011;6917;52.194;9.894;2022-11-20T08:47:27;3.30;;;2.63;;
13689;SDS011;6917;52.194;9.894;2022-11-20T08:49:53;4.97;;;4.17;;
13689;SDS011;6917;52.194;9.894;2022-11-20T08:52:18;3.57;;;3.27;;
13689;SDS011;6917;52.194;9.894;2022-11-20T08:54:43;6.73;;;6.07;;
13689;SDS011;6917;52.194;9.894;2022-11-20T08:57:09;4.50;;;3.70;;
13689;SDS011;6917;52.194;9.894;2022-11-20T08:59:34;5.33;;;4.83;;
13689;SDS011;6917;52.194;9.894;2022-11-20T09:01:59;3.70;;;3.33;;
13689;SDS011;6917;52.194;9.894;2022-11-20T09:04:24;3.57;;;3.27;;
13689;SDS011;6917;52.194;9.894;2022-11-20T09:06:50;3.77;;;2.93;;
13689;SDS011;6917;52.194;9.894;2022-11-20T09:09:16;3.27;;;2.97;;
13689;SDS011;6917;52.194;9.894;2022-11-20T09:11:43;2.53;;;2.33;;
13689;SDS011;6917;52.194;9.894;2022-11-20T09:14:08;2.10;;;2.00;;
13689;SDS011;6917;52.194;9.894;2022-11-20T09:16:34;8.43;;;3.03;;
13689;SDS011;6917;52.194;9.894;2022-11-20T09:18:59;2.90;;;2.70;;
13689;SDS011;6917;52.194;9.894;2022-11-20T09:21:24;2.97;;;2.77;;
13689;SDS011;6917;52.194;9.894;2022-11-20T09:23:50;1.60;;;1.50;;
13689;SDS011;6917;52.194;9.894;2022-11-20T09:26:15;1.13;;;1.13;;
13689;SDS011;6917;52.194;9.894;2022-11-20T09:28:40;12.47;;;3.73;;
13689;SDS011;6917;52.194;9.894;2022-11-20T09:31:07;3.53;;;3.23;;
13689;SDS011;6917;52.194;9.894;2022-11-20T09:33:34;4.20;;;3.80;;
13689;SDS011;6917;52.194;9.894;2022-11-20T09:36:00;5.53;;;2.80;;
13689;SDS011;6917;52.194;9.894;2022-11-20T09:38:25;5.57;;;3.60;;
13689;SDS011;6917;52.194;9.894;2022-11-20T09:41:19;2.63;;;2.43;;
13689;SDS011;6917;52.194;9.894;2022-11-20T09:44:06;3.60;;;3.30;;
13689;SDS011;6917;52.194;9.894;2022-11-20T09:46:52;2.63;;;2.47;;
13689;SDS011;6917;52.194;9.894;2022-11-20T09:49:27;3.27;;;3.03;;
13689;SDS011;6917;52.194;9.894;2022-11-20T09:52:13;1.47;;;1.37;;
13689;SDS011;6917;52.194;9.894;2022-11-20T09:54:54;7.70;;;3.93;;
13689;SDS011;6917;52.194;9.894;2022-11-20T09:57:31;5.60;;;4.20;;
13689;SDS011;6917;52.194;9.894;2022-11-20T10:00:01;5.13;;;4.40;;
13689;SDS011;6917;52.194;9.894;2022-11-20T10:02:30;4.87;;;4.37;;
13689;SDS011;6917;52.194;9.894;2022-11-20T10:05:04;5.47;;;4.80;;
13689;SDS011;6917;52.194;9.894;2022-11-20T10:07:40;4.40;;;4.07;;
13689;SDS011;6917;52.194;9.894;2022-11-20T10:10:25;6.10;;;4.40;;
13689;SDS011;6917;52.194;9.894;2022-11-20T10:18:21;2.43;;;2.23;;
13689;SDS011;6917;52.194;9.894;2022-11-20T10:23:44;1.13;;;1.13;;
13689;SDS011;6917;52.194;9.894;2022-11-20T10:27:02;2.77;;;2.53;;
13689;SDS011;6917;52.194;9.894;2022-11-20T10:29:15;2.07;;;1.97;;
13689;SDS011;6917;52.194;9.894;2022-11-20T10:31:42;6.30;;;5.80;;
13689;SDS011;6917;52.194;9.894;2022-11-20T10:36:41;3.07;;;2.87;;
13689;SDS011;6917;52.194;9.894;2022-11-20T10:39:18;9.07;;;4.90;;
13689;SDS011;6917;52.194;9.894;2022-11-20T10:41:46;9.20;;;8.33;;
13689;SDS011;6917;52.194;9.894;2022-11-20T10:44:17;7.63;;;6.93;;
13689;SDS011;6917;52.194;9.894;2022-11-20T10:47:04;6.80;;;6.20;;
13689;SDS011;6917;52.194;9.894;2022-11-20T10:49:35;5.83;;;5.23;;
13689;SDS011;6917;52.194;9.894;2022-11-20T10:52:17;6.53;;;6.03;;
13689;SDS011;6917;52.194;9.894;2022-11-20T11:00:30;6.47;;;5.83;;
13689;SDS011;6917;52.194;9.894;2022-11-20T11:02:56;6.17;;;5.63;;
13689;SDS011;6917;52.194;9.894;2022-11-20T11:05:37;6.17;;;5.63;;
13689;SDS011;6917;52.194;9.894;2022-11-20T11:08:10;7.27;;;6.00;;
13689;SDS011;6917;52.194;9.894;2022-11-20T11:10:51;7.17;;;6.53;;
13689;SDS011;6917;52.194;9.894;2022-11-20T11:13:26;7.10;;;6.40;;
13689;SDS011;6917;52.194;9.894;2022-11-20T11:15:54;5.23;;;4.83;;
13689;SDS011;6917;52.194;9.894;2022-11-20T11:18:27;7.70;;;6.07;;
13689;SDS011;6917;52.194;9.894;2022-11-20T11:20:55;6.80;;;6.10;;
13689;SDS011;6917;52.194;9.894;2022-11-20T11:25:58;4.67;;;2.77;;
13689;SDS011;6917;52.194;9.894;2022-11-20T11:28:25;8.50;;;5.27;;
13689;SDS011;6917;52.194;9.894;2022-11-20T11:30:53;5.13;;;4.63;;
13689;SDS011;6917;52.194;9.894;2022-11-20T11:33:23;4.30;;;4.00;;
13689;SDS011;6917;52.194;9.894;2022-11-20T11:35:53;10.97;;;4.83;;
13689;SDS011;6917;52.194;9.894;2022-11-20T11:38:36;7.20;;;4.90;;
13689;SDS011;6917;52.194;9.894;2022-11-20T11:41:05;7.07;;;5.87;;
13689;SDS011;6917;52.194;9.894;2022-11-20T11:43:35;5.07;;;4.57;;
13689;SDS011;6917;52.194;9.894;2022-11-20T11:57:23;5.33;;;4.83;;
13689;SDS011;6917;52.194;9.894;2022-11-20T12:00:20;8.40;;;6.67;;
13689;SDS011;6917;52.194;9.894;2022-11-20T12:13:37;8.80;;;6.40;;
13689;SDS011;6917;52.194;9.894;2022-11-20T12:15:46;3.50;;;2.60;;
13689;SDS011;6917;52.194;9.894;2022-11-20T12:18:16;9.73;;;4.60;;
13689;SDS011;6917;52.194;9.894;2022-11-20T12:20:45;6.03;;;5.43;;
13689;SDS011;6917;52.194;9.894;2022-11-20T12:23:24;7.30;;;5.40;;
13689;SDS011;6917;52.194;9.894;2022-11-20T12:26:14;7.37;;;6.70;;
13689;SDS011;6917;52.194;9.894;2022-11-20T12:28:47;8.37;;;4.40;;
13689;SDS011;6917;52.194;9.894;2022-11-20T12:31:33;7.17;;;6.10;;
13689;SDS011;6917;52.194;9.894;2022-11-20T12:34:14;5.03;;;4.53;;
13689;SDS011;6917;52.194;9.894;2022-11-20T12:36:55;4.87;;;4.13;;
13689;SDS011;6917;52.194;9.894;2022-11-20T12:39:43;6.20;;;5.20;;
13689;SDS011;6917;52.194;9.894;2022-11-20T12:42:21;10.60;;;8.73;;
13689;SDS011;6917;52.194;9.894;2022-11-20T13:08:25;3.10;;;2.90;;
13689;SDS011;6917;52.194;9.894;2022-11-20T13:19:01;4.57;;;3.23;;
13689;SDS011;6917;52.194;9.894;2022-11-20T13:21:37;4.43;;;4.10;;
13689;SDS011;6917;52.194;9.894;2022-11-20T13:29:29;7.20;;;4.97;;
13689;SDS011;6917;52.194;9.894;2022-11-20T13:34:38;5.77;;;3.93;;
13689;SDS011;6917;52.194;9.894;2022-11-20T13:37:04;3.70;;;3.50;;
13689;SDS011;6917;52.194;9.894;2022-11-20T13:39:33;2.53;;;2.43;;
13689;SDS011;6917;52.194;9.894;2022-11-20T13:42:19;1.77;;;1.67;;
13689;SDS011;6917;52.194;9.894;2022-11-20T13:44:51;4.93;;;3.20;;
13689;SDS011;6917;52.194;9.894;2022-11-20T13:47:23;5.17;;;3.37;;
13689;SDS011;6917;52.194;9.894;2022-11-20T13:49:53;6.07;;;5.47;;
13689;SDS011;6917;52.194;9.894;2022-11-20T14:03:34;4.13;;;3.83;;
13689;SDS011;6917;52.194;9.894;2022-11-20T14:06:04;2.10;;;1.70;;
13689;SDS011;6917;52.194;9.894;2022-11-20T14:16:47;0.47;;;0.47;;
13689;SDS011;6917;52.194;9.894;2022-11-20T14:21:45;3.77;;;3.57;;
13689;SDS011;6917;52.194;9.894;2022-11-20T14:24:30;0.87;;;0.87;;
13689;SDS011;6917;52.194;9.894;2022-11-20T14:26:55;1.70;;;1.60;;
13689;SDS011;6917;52.194;9.894;2022-11-20T14:29:27;1.67;;;1.57;;
13689;SDS011;6917;52.194;9.894;2022-11-20T14:31:55;1.47;;;1.37;;
13689;SDS011;6917;52.194;9.894;2022-11-20T14:34:22;0.57;;;0.53;;
13689;SDS011;6917;52.194;9.894;2022-11-20T14:36:52;0.57;;;0.57;;
13689;SDS011;6917;52.194;9.894;2022-11-20T14:39:22;6.53;;;4.47;;
13689;SDS011;6917;52.194;9.894;2022-11-20T14:42:16;1.47;;;1.37;;
13689;SDS011;6917;52.194;9.894;2022-11-20T14:44:43;2.10;;;1.77;;
13689;SDS011;6917;52.194;9.894;2022-11-20T14:47:10;0.70;;;0.70;;
13689;SDS011;6917;52.194;9.894;2022-11-20T14:49:38;1.20;;;0.60;;
13689;SDS011;6917;52.194;9.894;2022-11-20T14:52:14;1.37;;;1.37;;
13689;SDS011;6917;52.194;9.894;2022-11-20T14:54:54;1.07;;;1.07;;
13689;SDS011;6917;52.194;9.894;2022-11-20T14:57:34;6.13;;;3.43;;
13689;SDS011;6917;52.194;9.894;2022-11-20T15:02:38;4.83;;;4.17;;
13689;SDS011;6917;52.194;9.894;2022-11-20T15:05:06;14.93;;;9.53;;
13689;SDS011;6917;52.194;9.894;2022-11-20T15:07:35;16.23;;;7.47;;
13689;SDS011;6917;52.194;9.894;2022-11-20T15:12:32;0.93;;;0.93;;
13689;SDS011;6917;52.194;9.894;2022-11-20T15:15:00;0.73;;;0.70;;
13689;SDS011;6917;52.194;9.894;2022-11-20T15:17:26;1.27;;;1.27;;
13689;SDS011;6917;52.194;9.894;2022-11-20T15:19:52;1.50;;;1.40;;
13689;SDS011;6917;52.194;9.894;2022-11-20T15:22:19;7.53;;;2.53;;
13689;SDS011;6917;52.194;9.894;2022-11-20T15:24:44;1.93;;;1.80;;
13689;SDS011;6917;52.194;9.894;2022-11-20T15:27:10;5.23;;;2.77;;
13689;SDS011;6917;52.194;9.894;2022-11-20T15:29:36;0.10;;;0.10;;
13689;SDS011;6917;52.194;9.894;2022-11-20T15:32:01;0.33;;;0.33;;
13689;SDS011;6917;52.194;9.894;2022-11-20T15:34:27;0.60;;;0.60;;
13689;SDS011;6917;52.194;9.894;2022-11-20T15:36:52;0.00;;;0.00;;
13689;SDS011;6917;52.194;9.894;2022-11-20T15:39:19;0.20;;;0.20;;
13689;SDS011;6917;52.194;9.894;2022-11-20T15:41:44;0.00;;;0.00;;
13689;SDS011;6917;52.194;9.894;2022-11-20T15:44:10;0.00;;;0.00;;
13689;SDS011;6917;52.194;9.894;2022-11-20T15:46:36;0.00;;;0.00;;
13689;SDS011;6917;52.194;9.894;2022-11-20T15:49:05;0.10;;;0.10;;
13689;SDS011;6917;52.194;9.894;2022-11-20T15:51:35;0.10;;;0.10;;
13689;SDS011;6917;52.194;9.894;2022-11-20T15:54:16;0.00;;;0.00;;
13689;SDS011;6917;52.194;9.894;2022-11-20T15:56:44;0.00;;;0.00;;
13689;SDS011;6917;52.194;9.894;2022-11-20T15:59:10;0.40;;;0.40;;
13689;SDS011;6917;52.194;9.894;2022-11-20T16:01:37;0.53;;;0.53;;
13689;SDS011;6917;52.194;9.894;2022-11-20T16:04:02;0.63;;;0.63;;
13689;SDS011;6917;52.194;9.894;2022-11-20T16:06:30;0.77;;;0.77;;
13689;SDS011;6917;52.194;9.894;2022-11-20T16:08:55;0.10;;;0.10;;
13689;SDS011;6917;52.194;9.894;2022-11-20T16:11:21;0.40;;;0.40;;
13689;SDS011;6917;52.194;9.894;2022-11-20T16:13:46;0.90;;;0.90;;
13689;SDS011;6917;52.194;9.894;2022-11-20T16:16:34;0.70;;;0.70;;
13689;SDS011;6917;52.194;9.894;2022-11-20T16:19:01;2.10;;;0.93;;
13689;SDS011;6917;52.194;9.894;2022-11-20T16:21:27;3.80;;;1.57;;
13689;SDS011;6917;52.194;9.894;2022-11-20T16:23:56;0.83;;;0.83;;
13689;SDS011;6917;52.194;9.894;2022-11-20T16:26:23;0.10;;;0.10;;
13689;SDS011;6917;52.194;9.894;2022-11-20T16:28:48;0.63;;;0.63;;
13689;SDS011;6917;52.194;9.894;2022-11-20T16:31:14;1.23;;;1.20;;
13689;SDS011;6917;52.194;9.894;2022-11-20T16:33:41;0.00;;;0.00;;
13689;SDS011;6917;52.194;9.894;2022-11-20T16:36:11;1.10;;;1.03;;
13689;SDS011;6917;52.194;9.894;2022-11-20T16:38:40;0.00;;;0.00;;
13689;SDS011;6917;52.194;9.894;2022-11-20T16:41:06;0.70;;;0.70;;
13689;SDS011;6917;52.194;9.894;2022-11-20T16:43:40;1.13;;;1.13;;
13689;SDS011;6917;52.194;9.894;2022-11-20T16:46:09;0.10;;;0.10;;
13689;SDS011;6917;52.194;9.894;2022-11-20T16:48:34;7.30;;;7.00;;
13689;SDS011;6917;52.194;9.894;2022-11-20T16:51:00;0.00;;;0.00;;
13689;SDS011;6917;52.194;9.894;2022-11-20T16:53:25;0.00;;;0.00;;
13689;SDS011;6917;52.194;9.894;2022-11-20T16:55:50;0.00;;;0.00;;
13689;SDS011;6917;52.194;9.894;2022-11-20T16:58:15;0.00;;;0.00;;
13689;SDS011;6917;52.194;9.894;2022-11-20T17:00:41;0.00;;;0.00;;
13689;SDS011;6917;52.194;9.894;2022-11-20T17:03:07;0.00;;;0.00;;
13689;SDS011;6917;52.194;9.894;2022-11-20T17:05:33;0.60;;;0.60;;